createdAt,value
2023-04-26T00:02:54.496Z,10.90
2023-04-26T00:07:57.092Z,10.90
2023-04-26T00:12:59.159Z,10.90
2023-04-26T00:18:01.280Z,10.90
2023-04-26T00:23:03.474Z,10.90
2023-04-26T00:28:05.658Z,10.80
2023-04-26T00:33:07.986Z,10.70
2023-04-26T00:38:10.157Z,10.80
2023-04-26T00:43:12.285Z,10.70
2023-04-26T00:48:18.177Z,10.70
2023-04-26T00:53:25.286Z,10.70
2023-04-26T00:58:27.525Z,10.50
2023-04-26T01:03:30.438Z,10.50
2023-04-26T01:08:32.878Z,10.40
2023-04-26T01:13:37.213Z,10.40
2023-04-26T01:18:39.377Z,10.40
2023-04-26T01:23:41.544Z,10.40
2023-04-26T01:28:43.665Z,10.40
2023-04-26T01:33:45.772Z,10.40
2023-04-26T01:38:47.953Z,10.40
2023-04-26T01:43:50.132Z,10.40
2023-04-26T01:48:54.104Z,10.40
2023-04-26T01:53:58.144Z,10.50
2023-04-26T01:59:00.583Z,10.40
2023-04-26T02:04:03.371Z,10.50
2023-04-26T02:09:06.349Z,10.40
2023-04-26T02:14:09.534Z,10.40
2023-04-26T02:19:11.827Z,10.40
2023-04-26T02:24:16.256Z,10.40
2023-04-26T02:29:18.430Z,10.40
2023-04-26T02:34:21.229Z,10.50
2023-04-26T02:39:23.746Z,10.50
2023-04-26T02:44:29.553Z,10.50
2023-04-26T02:49:32.057Z,10.50
2023-04-26T02:54:34.649Z,10.50
2023-04-26T02:59:37.170Z,10.50
2023-04-26T03:04:40.059Z,10.50
2023-04-26T03:09:42.404Z,10.50
2023-04-26T03:14:44.626Z,10.50
2023-04-26T03:19:46.915Z,10.50
2023-04-26T03:24:49.509Z,10.60
2023-04-26T03:29:52.057Z,10.60
2023-04-26T03:34:54.421Z,10.60
2023-04-26T03:39:56.737Z,10.60
2023-04-26T03:44:59.059Z,10.60
2023-04-26T03:50:01.722Z,10.50
2023-04-26T03:55:03.961Z,10.50
2023-04-26T04:00:13.092Z,10.40
2023-04-26T04:05:18.341Z,10.30
2023-04-26T04:10:23.004Z,10.30
2023-04-26T04:15:25.549Z,10.30
2023-04-26T04:20:29.353Z,10.30
2023-04-26T04:25:33.337Z,10.30
2023-04-26T04:30:38.809Z,10.30
2023-04-26T04:35:44.976Z,10.30
2023-04-26T04:40:50.329Z,10.30
2023-04-26T04:45:53.967Z,10.30
2023-04-26T04:50:56.163Z,10.30
2023-04-26T04:55:59.109Z,10.30
2023-04-26T05:01:01.477Z,10.30
2023-04-26T05:06:18.536Z,10.40
2023-04-26T05:11:21.497Z,10.40
2023-04-26T05:16:23.945Z,10.40
2023-04-26T05:21:26.435Z,10.40
2023-04-26T05:26:28.804Z,10.50
2023-04-26T05:31:49.208Z,10.50
2023-04-26T05:37:25.115Z,10.50
2023-04-26T05:42:27.564Z,10.50
2023-04-26T05:47:30.683Z,10.60
2023-04-26T05:52:32.949Z,10.60
2023-04-26T05:57:35.309Z,10.60
2023-04-26T06:02:37.649Z,10.60
2023-04-26T06:07:40.609Z,10.70
2023-04-26T06:12:43.134Z,10.70
2023-04-26T06:17:46.428Z,10.80
2023-04-26T06:22:48.787Z,10.80
2023-04-26T06:27:51.930Z,10.90
2023-04-26T06:32:54.277Z,11.00
2023-04-26T06:37:56.420Z,11.10
2023-04-26T06:42:58.943Z,11.20
2023-04-26T06:48:24.403Z,11.40
2023-04-26T06:53:26.540Z,11.50
2023-04-26T06:58:28.931Z,11.70
2023-04-26T07:03:31.435Z,11.90
2023-04-26T07:08:33.706Z,12.00
2023-04-26T07:13:36.114Z,12.20
2023-04-26T07:18:40.230Z,12.30
2023-04-26T07:23:42.667Z,12.40
2023-04-26T07:28:44.845Z,12.50
2023-04-26T07:33:47.135Z,12.70
2023-04-26T07:38:49.461Z,13.00
2023-04-26T07:43:51.772Z,13.30
2023-04-26T07:48:54.260Z,13.40
2023-04-26T07:53:56.536Z,13.60
2023-04-26T07:58:58.760Z,13.90
2023-04-26T08:04:01.756Z,13.80
2023-04-26T08:09:05.343Z,14.10
2023-04-26T08:14:07.652Z,14.40
2023-04-26T08:19:09.872Z,14.60
2023-04-26T08:24:12.107Z,14.90
2023-04-26T08:29:15.082Z,15.10
2023-04-26T08:34:17.672Z,14.90
2023-04-26T08:39:19.867Z,14.80
2023-04-26T08:44:24.455Z,15.00
2023-04-26T08:49:41.782Z,15.40
2023-04-26T08:54:45.901Z,15.50
2023-04-26T08:59:49.658Z,15.60
2023-04-26T09:04:51.994Z,15.50
2023-04-26T09:09:56.332Z,15.60
2023-04-26T09:14:58.627Z,15.60
2023-04-26T09:20:05.957Z,15.80
2023-04-26T09:25:11.559Z,16.10
2023-04-26T09:30:18.555Z,16.30
2023-04-26T09:35:28.097Z,16.70
2023-04-26T09:40:41.830Z,16.90
2023-04-26T09:45:58.334Z,17.50
2023-04-26T09:51:03.188Z,18.20
2023-04-26T09:56:13.929Z,17.50
2023-04-26T10:01:20.152Z,16.90
2023-04-26T10:06:22.436Z,16.70
2023-04-26T10:11:26.373Z,16.70
2023-04-26T10:16:29.247Z,17.00
2023-04-26T10:21:37.080Z,17.20
2023-04-26T10:26:54.409Z,17.30
2023-04-26T10:32:02.730Z,17.40
2023-04-26T10:37:12.632Z,17.60
2023-04-26T10:42:30.335Z,17.90
2023-04-26T10:47:36.147Z,18.00
2023-04-26T10:53:05.845Z,18.00
2023-04-26T10:58:41.199Z,18.20
2023-04-26T11:04:01.755Z,17.60
2023-04-26T11:09:24.222Z,17.50
2023-04-26T11:14:26.870Z,16.80
2023-04-26T11:19:29.076Z,17.00
2023-04-26T11:24:32.752Z,17.30
2023-04-26T11:29:34.879Z,17.20
2023-04-26T11:34:39.370Z,17.40
2023-04-26T11:39:41.564Z,17.20
2023-04-26T11:44:44.639Z,17.10
2023-04-26T11:49:47.986Z,17.30
2023-04-26T11:54:50.138Z,17.60
2023-04-26T11:59:52.441Z,17.60
2023-04-26T12:04:59.822Z,17.40
2023-04-26T12:10:21.808Z,17.30
2023-04-26T12:15:26.214Z,17.60
2023-04-26T12:20:31.259Z,17.80
2023-04-26T12:25:38.442Z,17.50
2023-04-26T12:30:41.156Z,17.50
2023-04-26T12:35:43.397Z,17.50
2023-04-26T12:40:45.698Z,17.80
2023-04-26T12:45:48.080Z,18.10
2023-04-26T12:50:51.411Z,17.20
2023-04-26T12:55:53.864Z,17.00
2023-04-26T13:00:57.142Z,17.20
2023-04-26T13:06:06.005Z,17.50
2023-04-26T13:11:11.028Z,17.80
2023-04-26T13:16:15.586Z,18.10
2023-04-26T13:21:18.916Z,18.20
2023-04-26T13:26:20.998Z,17.90
2023-04-26T13:31:23.189Z,17.80
2023-04-26T13:36:28.372Z,17.80
2023-04-26T13:41:33.541Z,18.10
2023-04-26T13:46:40.789Z,18.50
2023-04-26T13:51:47.036Z,18.60
2023-04-26T13:56:49.320Z,18.60
2023-04-26T14:01:54.268Z,18.60
2023-04-26T14:06:58.310Z,18.50
2023-04-26T14:22:30.792Z,18.10
2023-04-26T14:27:36.394Z,18.40
2023-04-26T14:32:41.571Z,18.40
2023-04-26T14:37:43.898Z,18.50
2023-04-26T14:42:46.585Z,18.60
2023-04-26T14:47:48.801Z,18.40
2023-04-26T14:52:54.269Z,18.30
2023-04-26T14:57:57.738Z,18.00
2023-04-26T15:03:00.168Z,17.90
2023-04-26T15:08:04.347Z,18.10
2023-04-26T15:13:09.256Z,18.00
2023-04-26T15:18:11.409Z,18.00
2023-04-26T15:23:14.007Z,17.90
2023-04-26T15:28:24.306Z,17.90
2023-04-26T15:33:38.994Z,18.10
2023-04-26T15:38:44.942Z,18.30
2023-04-26T15:43:57.242Z,18.30
2023-04-26T15:48:59.320Z,18.30
2023-04-26T15:54:05.093Z,18.50
2023-04-26T15:59:07.654Z,18.10
2023-04-26T16:04:10.279Z,18.00
2023-04-26T16:09:25.508Z,17.90
2023-04-26T16:14:28.228Z,17.60
2023-04-26T16:19:31.010Z,17.50
2023-04-26T16:24:33.215Z,17.40
2023-04-26T16:29:35.521Z,17.20
2023-04-26T16:34:37.909Z,17.40
2023-04-26T16:39:40.112Z,17.40
2023-04-26T16:44:42.208Z,17.50
2023-04-26T16:49:47.011Z,17.00
2023-04-26T16:54:49.339Z,17.40
2023-04-26T16:59:54.728Z,16.80
2023-04-26T17:04:58.305Z,16.50
2023-04-26T17:10:00.743Z,16.40
2023-04-26T17:15:04.603Z,16.40
2023-04-26T17:20:10.142Z,16.30
2023-04-26T17:25:13.556Z,16.30
2023-04-26T17:30:16.050Z,16.30
2023-04-26T17:35:18.335Z,16.30
2023-04-26T17:40:20.613Z,15.90
2023-04-26T17:45:24.374Z,15.60
2023-04-26T17:50:26.799Z,15.20
2023-04-26T17:55:29.022Z,15.20
2023-04-26T18:00:31.281Z,15.40
2023-04-26T18:05:33.665Z,16.40
2023-04-26T18:10:36.066Z,16.70
2023-04-26T18:15:38.956Z,16.60
2023-04-26T18:20:41.086Z,16.30
2023-04-26T18:25:43.434Z,15.80
2023-04-26T18:30:45.616Z,15.40
2023-04-26T18:35:49.998Z,15.20
2023-04-26T18:40:53.184Z,15.10
2023-04-26T18:45:55.724Z,15.00
2023-04-26T18:50:58.149Z,15.00
2023-04-26T18:56:09.006Z,14.90
2023-04-26T19:01:12.094Z,14.90
2023-04-26T19:06:22.387Z,14.60
2023-04-26T19:11:27.764Z,14.30
2023-04-26T19:16:38.598Z,14.10
2023-04-26T19:21:46.758Z,14.00
2023-04-26T19:26:51.705Z,13.80
2023-04-26T19:31:55.148Z,13.80
2023-04-26T19:36:58.474Z,13.70
2023-04-26T19:42:01.922Z,13.60
2023-04-26T19:47:05.199Z,13.60
2023-04-26T19:52:07.801Z,13.70
2023-04-26T19:57:09.972Z,13.80
2023-04-26T20:02:12.085Z,13.70
2023-04-26T20:07:14.217Z,13.60
2023-04-26T20:12:16.851Z,13.60
2023-04-26T20:17:18.932Z,13.50
2023-04-26T20:22:21.074Z,13.40
2023-04-26T20:27:24.355Z,13.20
2023-04-26T20:32:27.803Z,12.90
2023-04-26T20:37:31.813Z,12.80
2023-04-26T20:42:34.956Z,12.60
2023-04-26T20:47:37.548Z,12.50
2023-04-26T20:52:40.802Z,12.30
2023-04-26T20:57:44.017Z,12.20
2023-04-26T21:02:46.214Z,12.10
2023-04-26T21:07:48.426Z,12.00
2023-04-26T21:12:51.903Z,11.90
2023-04-26T21:17:57.210Z,11.80
2023-04-26T21:23:01.851Z,11.70
2023-04-26T21:28:06.804Z,11.60
2023-04-26T21:33:12.617Z,11.50
2023-04-26T21:38:16.996Z,11.40
2023-04-26T21:43:23.231Z,11.20
2023-04-26T21:48:27.557Z,11.10
2023-04-26T21:53:32.699Z,11.00
2023-04-26T21:58:36.313Z,11.00
2023-04-26T22:03:40.196Z,11.10
2023-04-26T22:09:09.461Z,11.20
2023-04-26T22:14:15.073Z,11.30
2023-04-26T22:19:22.550Z,11.40
2023-04-26T22:24:33.301Z,11.40
2023-04-26T22:29:40.221Z,11.50
2023-04-26T22:34:43.867Z,11.50
2023-04-26T22:39:48.724Z,11.50
2023-04-26T22:45:00.477Z,11.50
2023-04-26T22:50:07.657Z,11.50
2023-04-26T22:55:21.886Z,11.60
2023-04-26T23:00:27.607Z,11.60
2023-04-26T23:05:42.500Z,11.60
2023-04-26T23:10:48.508Z,11.60
2023-04-26T23:16:09.307Z,11.50
2023-04-26T23:21:18.523Z,11.50
2023-04-26T23:37:40.389Z,11.50
2023-04-26T23:53:40.566Z,11.50
2023-04-26T23:58:57.639Z,11.50
